Time;durP1;ratioP1;P1;durP2;ratioP2;P2;SDS_P1;SDS_P2;PMS_P1;PMS_P2;Temp;Humidity;BMP_temperature;BMP_pressure;BME280_temperature;BME280_humidity;BME280_pressure;Samples;Min_cycle;Max_cycle;Signal;HPM_P1;HPM_P2
2023/02/10 00:01:19;;;;;;;12.70;7.00;;;;;;;-6.52;70.36;100582.63;4787913;30;20047;-76
2023/02/10 00:03:46;;;;;;;9.70;5.82;;;;;;;-6.61;70.30;100573.88;4773188;30;20058;-76
2023/02/10 00:06:12;;;;;;;9.93;5.45;;;;;;;-6.93;70.17;100575.28;4803281;29;20077;-77
2023/02/10 00:08:39;;;;;;;9.25;5.82;;;;;;;-6.93;70.54;100581.34;4803132;29;20047;-76
2023/02/10 00:11:10;;;;;;;12.75;6.30;;;;;;;-6.91;70.72;100584.00;4787758;30;20141;-77
2023/02/10 00:13:38;;;;;;;11.70;5.65;;;;;;;-7.01;70.96;100579.53;4788478;30;20100;-77
2023/02/10 00:16:06;;;;;;;8.27;5.18;;;;;;;-7.14;71.29;100569.03;4758143;30;20071;-77
2023/02/10 00:18:33;;;;;;;10.52;6.38;;;;;;;-7.11;71.16;100561.25;4803703;29;20079;-78
2023/02/10 00:21:06;;;;;;;12.52;6.82;;;;;;;-6.91;71.05;100571.00;4788415;30;20454;-77
2023/02/10 00:23:32;;;;;;;12.88;7.07;;;;;;;-6.85;70.87;100573.63;4789157;29;20047;-77
2023/02/10 00:26:02;;;;;;;11.10;6.32;;;;;;;-6.89;70.61;100582.25;4788239;30;20476;-76
2023/02/10 00:28:28;;;;;;;10.13;6.00;;;;;;;-7.00;70.97;100558.75;4788970;29;20100;-78
2023/02/10 00:30:53;;;;;;;8.25;5.85;;;;;;;-6.94;70.82;100563.16;4803282;29;20047;-77
2023/02/10 00:33:19;;;;;;;13.48;6.55;;;;;;;-7.10;71.24;100557.81;4788942;29;20051;-77
2023/02/10 00:35:45;;;;;;;7.72;4.93;;;;;;;-7.15;71.55;100558.59;4802938;29;20089;-77
2023/02/10 00:38:11;;;;;;;10.43;5.90;;;;;;;-7.09;71.36;100554.34;4788903;29;20054;-78
2023/02/10 00:40:37;;;;;;;11.48;6.93;;;;;;;-6.94;71.27;100563.16;4802587;29;20058;-77
2023/02/10 00:43:02;;;;;;;11.30;6.05;;;;;;;-6.83;70.97;100550.28;4787331;30;20055;-78
2023/02/10 00:45:28;;;;;;;10.80;6.57;;;;;;;-6.76;70.67;100552.94;4772785;30;20051;-79
2023/02/10 00:47:54;;;;;;;10.88;6.82;;;;;;;-6.74;70.72;100540.81;4772733;30;20051;-77
2023/02/10 00:50:20;;;;;;;9.85;6.30;;;;;;;-6.80;70.26;100534.72;4772545;30;20047;-77
2023/02/10 00:52:45;;;;;;;10.25;6.20;;;;;;;-6.72;70.15;100553.84;4788403;29;20055;-78
2023/02/10 00:55:12;;;;;;;12.05;7.00;;;;;;;-6.82;70.36;100549.41;4787177;30;20419;-77
2023/02/10 00:57:38;;;;;;;11.60;7.00;;;;;;;-6.73;70.18;100547.78;4787228;30;20055;-77
2023/02/10 01:00:05;;;;;;;10.10;6.55;;;;;;;-6.78;70.46;100545.97;4787710;30;20047;-78
2023/02/10 01:02:31;;;;;;;12.57;7.13;;;;;;;-6.58;70.44;100553.94;4802127;29;20096;-77
2023/02/10 01:04:59;;;;;;;10.25;6.97;;;;;;;-6.48;70.26;100528.03;4802364;29;20054;-76
2023/02/10 01:07:25;;;;;;;11.70;7.22;;;;;;;-6.41;70.04;100544.56;4787258;30;20043;-78
2023/02/10 01:09:52;;;;;;;12.35;6.55;;;;;;;-6.32;69.84;100534.22;4772642;30;20520;-77
2023/02/10 01:12:17;;;;;;;14.00;8.02;;;;;;;-6.28;69.63;100540.31;4786823;30;20055;-78
2023/02/10 01:14:43;;;;;;;13.45;6.32;;;;;;;-6.31;69.27;100541.19;4757799;30;20043;-78
2023/02/10 01:17:09;;;;;;;10.38;6.13;;;;;;;-6.26;69.60;100539.47;4802135;29;20059;-78
2023/02/10 01:19:35;;;;;;;10.40;6.57;;;;;;;-6.14;69.27;100536.09;4757596;30;20103;-77
2023/02/10 01:22:01;;;;;;;10.63;6.80;;;;;;;-6.13;68.71;100536.13;4786741;30;20149;-78
2023/02/10 01:24:27;;;;;;;11.95;7.20;;;;;;;-6.03;68.66;100536.16;4801885;29;20127;-79
2023/02/10 01:26:55;;;;;;;11.10;6.93;;;;;;;-5.99;68.34;100532.72;4801543;29;20053;-77
2023/02/10 01:29:21;;;;;;;11.65;6.38;;;;;;;-5.97;68.21;100536.22;4787622;30;20134;-78
2023/02/10 01:31:46;;;;;;;10.38;6.47;;;;;;;-5.99;67.80;100544.00;4786859;29;20058;-78
2023/02/10 01:34:12;;;;;;;10.95;7.35;;;;;;;-6.05;67.59;100530.97;4787441;30;20039;-77
2023/02/10 01:36:38;;;;;;;9.85;6.43;;;;;;;-6.05;67.65;100535.31;4802055;29;20515;-77
2023/02/10 01:39:04;;;;;;;10.00;6.97;;;;;;;-6.01;67.28;100535.31;4771811;30;20453;-78
2023/02/10 01:41:30;;;;;;;10.93;6.35;;;;;;;-6.27;67.79;100534.28;4757267;30;20059;-78
2023/02/10 01:44:02;;;;;;;10.82;7.03;;;;;;;-6.25;67.68;100519.53;4787810;30;20460;-77
2023/02/10 01:46:30;;;;;;;9.70;5.35;;;;;;;-6.31;68.00;100507.38;4802215;29;20448;-78
2023/02/10 01:48:59;;;;;;;8.63;6.10;;;;;;;-6.22;68.19;100510.00;4786541;30;20504;-77
2023/02/10 01:51:33;;;;;;;11.45;6.70;;;;;;;-6.20;67.90;100508.31;4785991;30;20087;-77
2023/02/10 01:53:59;;;;;;;10.05;6.80;;;;;;;-6.27;68.06;100485.72;4786830;30;20103;-76
2023/02/10 01:56:26;;;;;;;10.07;5.72;;;;;;;-6.25;68.34;100504.78;4786694;30;20055;-78
2023/02/10 01:58:51;;;;;;;9.50;6.60;;;;;;;-6.22;68.57;100509.16;4801823;29;20051;-78
2023/02/10 02:01:18;;;;;;;10.35;6.30;;;;;;;-6.13;68.37;100499.69;4786773;30;20077;-79
2023/02/10 02:03:45;;;;;;;10.77;6.47;;;;;;;-6.19;68.43;100497.03;4802474;29;20094;-78
2023/02/10 02:06:11;;;;;;;10.30;6.90;;;;;;;-6.07;68.54;100497.97;4775350;30;20053;-77
2023/02/10 02:08:38;;;;;;;10.02;7.00;;;;;;;-6.03;68.79;100500.59;4805117;29;20047;-78
2023/02/10 02:11:17;;;;;;;13.13;8.02;;;;;;;-5.95;68.21;100493.69;4761256;30;20043;-77
2023/02/10 02:13:43;;;;;;;;;;;;;;;-5.87;68.04;100496.28;4761002;30;20061;-77
2023/02/10 02:16:45;;;;;;;13.15;8.23;;;;;;;-5.85;67.88;100505.00;4778187;30;19925;-77
2023/02/10 02:19:42;;;;;;;13.50;7.95;;;;;;;-5.80;67.65;100497.19;4775134;30;20051;-79
2023/02/10 02:22:45;;;;;;;13.48;8.70;;;;;;;-5.80;67.38;100498.06;4760558;30;20216;-78
2023/02/10 02:25:33;;;;;;;14.07;8.20;;;;;;;-5.91;67.50;100502.34;4789648;30;20055;-78
2023/02/10 02:28:19;;;;;;;13.43;8.68;;;;;;;-5.87;67.38;100506.72;4775008;30;20078;-78
2023/02/10 02:31:02;;;;;;;14.45;8.50;;;;;;;-5.83;67.31;100503.25;4789699;30;20571;-77
2023/02/10 02:33:55;;;;;;;12.35;7.72;;;;;;;-5.86;67.09;100492.84;4759950;30;20075;-78
2023/02/10 02:36:30;;;;;;;11.07;7.20;;;;;;;-5.84;67.46;100485.91;4785813;30;20418;-79
2023/02/10 02:39:03;;;;;;;12.25;7.93;;;;;;;-5.82;67.42;100486.78;4804519;29;20081;-77
2023/02/10 02:41:31;;;;;;;11.20;6.75;;;;;;;-5.95;67.26;100467.66;4790626;29;20538;-78
2023/02/10 02:44:00;;;;;;;14.23;8.07;;;;;;;-5.93;66.99;100475.50;4790572;29;20086;-79
2023/02/10 02:46:42;;;;;;;14.52;8.38;;;;;;;-5.96;67.19;100472.88;4790057;30;20047;-79
2023/02/10 02:49:35;;;;;;;14.20;8.15;;;;;;;-5.94;67.21;100473.72;4774791;30;20100;-77
2023/02/10 02:52:07;;;;;;;12.05;7.97;;;;;;;-5.91;67.04;100469.38;4789439;30;20043;-78
2023/02/10 02:54:52;;;;;;;15.25;8.98;;;;;;;-5.88;67.38;100466.78;4789260;30;20400;-78
2023/02/10 02:57:39;;;;;;;13.18;7.95;;;;;;;-5.83;67.19;100465.94;4789168;30;20235;-78
2023/02/10 03:00:15;;;;;;;14.70;8.80;;;;;;;-5.88;66.89;100463.31;4789363;30;20051;-79
2023/02/10 03:02:45;;;;;;;14.20;8.38;;;;;;;-5.97;66.76;100455.50;4789063;30;20078;-76
2023/02/10 03:05:16;;;;;;;13.93;8.15;;;;;;;-5.90;67.14;100475.47;4774207;30;20051;-78
2023/02/10 03:07:44;;;;;;;13.10;8.52;;;;;;;-5.93;66.80;100475.50;4774851;30;20085;-78
2023/02/10 03:10:10;;;;;;;15.02;9.00;;;;;;;-5.94;66.74;100473.72;4789204;30;20054;-77
2023/02/10 03:12:36;;;;;;;16.50;9.45;;;;;;;-6.01;66.66;100470.25;4788803;30;20509;-77
2023/02/10 03:15:02;;;;;;;13.48;8.98;;;;;;;-6.00;66.65;100474.56;4758539;30;20085;-79
2023/02/10 03:17:28;;;;;;;13.73;8.93;;;;;;;-6.01;66.67;100469.38;4759012;30;20437;-79
2023/02/10 03:19:54;;;;;;;13.68;8.65;;;;;;;-6.09;66.58;100463.22;4789146;30;20146;-78
2023/02/10 03:22:20;;;;;;;18.58;10.07;;;;;;;-6.12;66.25;100459.78;4759477;30;20442;-77
2023/02/10 03:24:45;;;;;;;15.38;8.65;;;;;;;-6.12;66.16;100464.97;4789086;30;20389;-78
2023/02/10 03:27:11;;;;;;;15.95;9.23;;;;;;;-6.12;66.41;100464.09;4788981;30;20059;-81
2023/02/10 03:29:37;;;;;;;15.82;8.80;;;;;;;-6.11;66.08;100461.50;4773774;30;20047;-78
2023/02/10 03:32:05;;;;;;;15.63;9.52;;;;;;;-6.19;65.90;100451.91;4803796;29;20067;-79
2023/02/10 03:34:31;;;;;;;12.55;7.95;;;;;;;-6.23;66.13;100457.97;4789688;29;20085;-79
2023/02/10 03:36:57;;;;;;;13.30;8.80;;;;;;;-6.30;66.24;100445.78;4789723;29;20051;-79
2023/02/10 03:39:22;;;;;;;14.65;8.57;;;;;;;-6.38;66.06;100469.16;4788982;30;20050;-79
2023/02/10 03:41:48;;;;;;;26.05;9.73;;;;;;;-6.79;66.41;100451.50;4773308;30;20450;-80
2023/02/10 03:44:14;;;;;;;13.55;8.00;;;;;;;-6.76;66.59;100454.16;4788759;30;20051;-77
2023/02/10 03:46:40;;;;;;;36.55;9.00;;;;;;;-6.73;67.09;100446.38;4788361;30;20063;-78
2023/02/10 03:49:06;;;;;;;15.18;8.13;;;;;;;-6.66;67.55;100455.06;4773438;30;20053;-80
2023/02/10 03:51:32;;;;;;;14.50;8.60;;;;;;;-6.59;67.37;100449.06;4773721;30;20051;-76
2023/02/10 03:53:58;;;;;;;16.17;8.50;;;;;;;-6.52;67.06;100444.78;4789723;29;20080;-79
2023/02/10 03:56:23;;;;;;;14.02;8.80;;;;;;;-6.49;67.16;100442.19;4772994;30;20055;-78
2023/02/10 03:58:49;;;;;;;29.58;9.00;;;;;;;-6.48;67.58;100436.13;4788060;30;20119;-79
2023/02/10 04:01:19;;;;;;;16.08;8.15;;;;;;;-6.44;67.34;100435.28;4789380;29;20051;-80
2023/02/10 04:03:44;;;;;;;;;;;;;;;-6.36;67.15;100441.41;4759374;30;20050;-80
2023/02/10 04:06:11;;;;;;;15.52;8.63;;;;;;;-6.40;67.20;100442.25;4788301;30;20431;-78
2023/02/10 04:08:37;;;;;;;11.98;7.70;;;;;;;-6.38;67.31;100433.59;4788302;30;20051;-79
2023/02/10 04:11:04;;;;;;;19.10;8.93;;;;;;;-6.38;67.20;100430.13;4788247;30;20051;-79
2023/02/10 04:13:31;;;;;;;30.42;8.70;;;;;;;-6.41;67.29;100440.50;4773076;30;20478;-78
2023/02/10 04:16:05;;;;;;;14.52;8.20;;;;;;;-6.53;67.23;100422.25;4758563;30;20058;-78
2023/02/10 04:18:35;;;;;;;15.07;8.45;;;;;;;-6.40;67.54;100432.72;4759081;30;20518;-78
2023/02/10 04:21:04;;;;;;;15.13;8.95;;;;;;;-6.30;67.10;100432.78;4772169;30;20051;-82
2023/02/10 04:23:30;;;;;;;14.45;8.60;;;;;;;-6.21;67.14;100433.69;4802633;29;20059;-79
2023/02/10 04:25:56;;;;;;;16.15;8.65;;;;;;;-6.12;66.96;100432.88;4787814;29;20047;-81
2023/02/10 04:28:27;;;;;;;16.88;9.75;;;;;;;-6.08;66.85;100433.75;4772500;30;20058;-82
2023/02/10 04:30:54;;;;;;;26.58;10.55;;;;;;;-6.10;66.98;100431.13;4788174;30;20534;-80
2023/02/10 04:33:21;;;;;;;19.17;10.50;;;;;;;-6.06;67.04;100426.81;4802892;29;20093;-78
2023/02/10 04:35:50;;;;;;;19.50;10.25;;;;;;;-5.96;66.72;100439.03;4789108;30;20051;-79
2023/02/10 04:38:16;;;;;;;18.05;9.30;;;;;;;-5.86;66.32;100435.56;4772928;30;20055;-79
2023/02/10 04:40:42;;;;;;;15.38;9.40;;;;;;;-5.84;66.12;100444.25;4788589;29;20059;-82
2023/02/10 04:43:09;;;;;;;18.95;9.57;;;;;;;-5.82;65.96;100441.66;4789213;29;20054;-81
2023/02/10 04:45:35;;;;;;;17.48;9.38;;;;;;;-5.81;66.17;100439.03;4787695;30;20047;-82
2023/02/10 04:48:01;;;;;;;15.90;8.75;;;;;;;-5.79;65.72;100442.53;4802511;29;20058;-80
2023/02/10 04:50:27;;;;;;;15.70;8.27;;;;;;;-5.89;65.26;100430.34;4787596;30;20043;-79
2023/02/10 04:52:52;;;;;;;14.48;9.10;;;;;;;-5.95;65.68;100430.34;4787485;30;20058;-79
2023/02/10 04:55:18;;;;;;;19.92;8.98;;;;;;;-5.94;65.80;100432.06;4787567;30;20047;-79
2023/02/10 04:57:44;;;;;;;13.50;8.02;;;;;;;-5.88;65.98;100432.06;4787292;30;20196;-77
2023/02/10 05:00:11;;;;;;;13.70;8.43;;;;;;;-5.76;65.47;100436.44;4773044;30;20059;-79
2023/02/10 05:02:37;;;;;;;18.42;8.98;;;;;;;-5.68;65.28;100439.94;4787062;30;20055;-81
2023/02/10 05:05:03;;;;;;;15.90;8.68;;;;;;;-5.65;65.23;100434.75;4788404;29;20058;-87
2023/02/10 05:07:30;;;;;;;15.77;9.27;;;;;;;-5.56;65.58;100433.94;4786358;30;20448;-80
2023/02/10 05:09:56;;;;;;;15.88;8.80;;;;;;;-5.49;65.40;100443.47;4787341;30;20051;-80
2023/02/10 05:12:22;;;;;;;16.13;8.75;;;;;;;-5.52;65.19;100443.50;4786850;30;20043;-78
2023/02/10 05:14:50;;;;;;;17.80;8.95;;;;;;;-5.52;64.52;100440.91;4802163;29;20058;-81
2023/02/10 05:17:19;;;;;;;17.02;9.40;;;;;;;-5.56;64.70;100449.56;4801397;29;20063;-80
2023/02/10 05:19:50;;;;;;;24.38;9.32;;;;;;;-5.48;64.53;100446.09;4775152;29;20530;-80
2023/02/10 05:22:16;;;;;;;15.85;9.13;;;;;;;-5.49;64.26;100443.47;4768811;30;20086;-80
2023/02/10 05:24:42;;;;;;;21.30;10.48;;;;;;;-5.47;64.30;100433.94;4780541;30;20127;-79
2023/02/10 05:27:08;;;;;;;25.75;10.95;;;;;;;-5.45;63.94;100421.81;4787767;30;20051;-80
2023/02/10 05:29:34;;;;;;;17.52;9.30;;;;;;;-5.28;63.65;100440.06;4788306;30;20532;-80
2023/02/10 05:32:00;;;;;;;18.70;9.88;;;;;;;-5.23;63.77;100433.13;4787056;29;20051;-81
2023/02/10 05:34:26;;;;;;;17.50;9.40;;;;;;;-5.21;63.61;100429.66;4786846;30;20435;-82
2023/02/10 05:36:52;;;;;;;19.05;8.77;;;;;;;-5.15;63.39;100428.81;4786424;30;20047;-79
2023/02/10 05:39:25;;;;;;;18.25;9.48;;;;;;;-5.13;63.23;100424.44;4800982;29;20451;-80
2023/02/10 05:41:53;;;;;;;15.40;8.85;;;;;;;-5.10;63.13;100423.59;4801601;29;20047;-80
2023/02/10 05:44:20;;;;;;;15.18;9.18;;;;;;;-5.20;62.45;100407.91;4786849;30;20123;-80
2023/02/10 05:46:46;;;;;;;16.33;8.98;;;;;;;-5.01;62.58;100423.56;4786546;30;20047;-80
2023/02/10 05:49:11;;;;;;;17.92;9.63;;;;;;;-4.97;62.77;100427.94;4786590;30;20149;-80
2023/02/10 05:51:37;;;;;;;22.50;12.60;;;;;;;-4.92;62.24;100423.59;4771512;30;20138;-80
2023/02/10 05:54:03;;;;;;;28.10;13.27;;;;;;;-4.92;62.57;100421.00;4786447;30;20053;-79
2023/02/10 05:56:29;;;;;;;29.40;14.35;;;;;;;-4.86;62.31;100420.97;4787823;29;20083;-79
2023/02/10 05:58:55;;;;;;;28.00;14.02;;;;;;;-4.92;62.07;100408.81;4801879;29;20139;-80
2023/02/10 06:01:21;;;;;;;24.17;12.25;;;;;;;-4.75;62.37;100421.84;4801802;29;20059;-79
2023/02/10 06:03:47;;;;;;;20.20;11.57;;;;;;;-4.66;61.91;100419.22;4801461;29;20067;-79
2023/02/10 06:06:13;;;;;;;23.85;12.57;;;;;;;-4.64;61.71;100421.84;4787905;29;20138;-79
2023/02/10 06:08:39;;;;;;;18.95;9.45;;;;;;;-4.66;62.12;100420.97;4801721;29;20533;-79
2023/02/10 06:11:05;;;;;;;22.40;11.43;;;;;;;-4.59;62.33;100416.59;4788039;29;20047;-81
2023/02/10 06:13:31;;;;;;;19.92;9.75;;;;;;;-4.54;61.96;100415.75;4787332;30;20491;-80
2023/02/10 06:15:57;;;;;;;14.93;9.07;;;;;;;-4.41;62.03;100419.19;4803585;29;20141;-80
2023/02/10 06:18:22;;;;;;;16.55;9.52;;;;;;;-4.27;61.76;100420.03;4758045;30;20063;-79
2023/02/10 06:20:50;;;;;;;14.10;8.85;;;;;;;-4.21;61.17;100421.78;4791116;30;20059;-79
2023/02/10 06:23:17;;;;;;;16.73;8.95;;;;;;;-4.23;60.99;100432.19;4804449;29;20404;-79
2023/02/10 06:25:43;;;;;;;14.55;9.80;;;;;;;-4.26;61.56;100429.59;4790378;30;20062;-81
2023/02/10 06:28:09;;;;;;;14.00;9.60;;;;;;;-4.22;61.25;100422.63;4788132;30;20059;-80
2023/02/10 06:30:35;;;;;;;15.25;8.75;;;;;;;-4.19;61.15;100433.06;4787425;30;20500;-80
2023/02/10 06:33:00;;;;;;;17.77;8.85;;;;;;;-4.16;61.47;100423.47;4801619;29;20078;-81
2023/02/10 06:35:26;;;;;;;13.80;8.52;;;;;;;-4.09;61.37;100433.91;4785927;30;20568;-81
2023/02/10 06:37:53;;;;;;;15.23;9.00;;;;;;;-3.96;61.05;100436.47;4771225;30;20555;-80
2023/02/10 06:40:19;;;;;;;14.68;9.25;;;;;;;-3.93;60.59;100436.44;4771494;30;20484;-80
2023/02/10 06:42:45;;;;;;;15.05;9.27;;;;;;;-3.92;60.65;100426.88;4787337;30;20108;-80
2023/02/10 06:45:11;;;;;;;16.00;8.98;;;;;;;-3.97;60.84;100429.50;4786186;30;20047;-81
2023/02/10 06:47:36;;;;;;;14.73;8.65;;;;;;;-3.85;60.72;100432.94;4785759;30;20047;-80
2023/02/10 06:50:03;;;;;;;16.38;8.52;;;;;;;-3.84;60.44;100432.94;4786969;29;20068;-81
2023/02/10 06:52:30;;;;;;;17.98;9.23;;;;;;;-3.84;60.62;100439.91;4789930;30;20047;-81
2023/02/10 06:54:55;;;;;;;15.40;9.50;;;;;;;-3.86;60.42;100429.47;4804413;29;20053;-80
2023/02/10 06:57:21;;;;;;;15.73;9.50;;;;;;;-3.85;60.89;100420.75;4789454;30;20051;-79
2023/02/10 06:59:47;;;;;;;19.92;9.68;;;;;;;-3.99;60.80;100425.16;4789468;30;20138;-81
2023/02/10 07:02:13;;;;;;;18.52;9.52;;;;;;;-4.01;61.08;100411.25;4790415;29;20040;-81
2023/02/10 07:04:39;;;;;;;17.40;9.13;;;;;;;-3.91;61.10;100415.56;4804220;29;20539;-81
2023/02/10 07:07:05;;;;;;;18.27;10.80;;;;;;;-3.76;61.02;100415.50;4804056;29;20078;-81
2023/02/10 07:09:31;;;;;;;17.23;9.82;;;;;;;-3.59;60.94;100419.75;4789455;30;20051;-81
2023/02/10 07:12:00;;;;;;;16.42;9.23;;;;;;;-3.48;60.81;100404.88;4774093;30;20522;-81
2023/02/10 07:14:26;;;;;;;18.50;9.15;;;;;;;-3.35;60.80;100418.75;4788924;30;20146;-81
2023/02/10 07:16:52;;;;;;;17.35;9.68;;;;;;;-3.27;60.20;100422.16;4788825;30;20527;-80
2023/02/10 07:19:18;;;;;;;18.38;9.98;;;;;;;-3.25;60.25;100405.59;4804290;29;20540;-81
2023/02/10 07:21:43;;;;;;;15.85;9.18;;;;;;;-3.18;60.17;100402.06;4789264;30;20055;-80
2023/02/10 07:24:09;;;;;;;15.98;8.75;;;;;;;-3.12;59.90;100402.91;4788696;30;20055;-79
2023/02/10 07:26:35;;;;;;;15.50;9.50;;;;;;;-3.22;60.11;100413.44;4788867;30;20055;-80
2023/02/10 07:29:01;;;;;;;26.35;9.82;;;;;;;-3.33;60.56;100391.72;4790026;29;20583;-80
2023/02/10 07:31:27;;;;;;;19.48;8.95;;;;;;;-3.41;60.32;100398.75;4788621;29;20078;-79
2023/02/10 07:33:53;;;;;;;20.98;9.35;;;;;;;-3.38;60.59;100398.75;4788354;30;20050;-79
2023/02/10 07:36:19;;;;;;;14.63;9.60;;;;;;;-3.28;60.86;100403.00;4803615;29;20047;-79
2023/02/10 07:38:45;;;;;;;17.70;9.57;;;;;;;-3.09;60.71;100410.72;4804019;29;20043;-80
2023/02/10 07:41:10;;;;;;;15.77;9.27;;;;;;;-2.90;60.43;100401.84;4773823;30;20043;-79
2023/02/10 07:43:36;;;;;;;18.90;10.18;;;;;;;-2.78;60.01;100393.91;4790041;29;20047;-80
2023/02/10 07:46:11;;;;;;;15.65;9.50;;;;;;;-2.75;60.07;100387.75;4802631;29;20462;-80
2023/02/10 07:48:37;;;;;;;16.92;10.02;;;;;;;-2.59;59.54;100396.38;4773794;30;20047;-82
2023/02/10 07:51:03;;;;;;;19.13;9.88;;;;;;;-2.47;59.84;100397.09;4803571;29;20066;-79
2023/02/10 07:53:29;;;;;;;16.10;9.13;;;;;;;-2.43;59.60;100382.22;4788495;30;20051;-81
2023/02/10 07:55:58;;;;;;;15.88;9.07;;;;;;;-2.32;59.02;100385.59;4803503;29;20528;-79
2023/02/10 07:58:24;;;;;;;16.73;8.30;;;;;;;-2.49;59.00;100387.50;4788359;30;20047;-79
2023/02/10 08:00:50;;;;;;;14.32;8.68;;;;;;;-2.57;59.47;100389.34;4788124;29;20393;-79
2023/02/10 08:03:16;;;;;;;21.35;12.68;;;;;;;-2.50;60.06;100385.78;4802696;29;20079;-79
2023/02/10 08:05:41;;;;;;;17.35;9.27;;;;;;;-2.42;59.57;100377.84;4803210;29;20472;-82
2023/02/10 08:08:11;;;;;;;19.67;9.63;;;;;;;-2.30;59.51;100375.97;4788158;30;20091;-80
2023/02/10 08:10:37;;;;;;;16.23;9.25;;;;;;;-2.13;59.83;100381.03;4803003;29;20043;-80
2023/02/10 08:13:04;;;;;;;15.70;8.77;;;;;;;-2.04;59.18;100391.38;4789507;29;20054;-79
2023/02/10 08:15:30;;;;;;;16.73;8.88;;;;;;;-2.15;59.41;100388.00;4773025;30;20080;-80
2023/02/10 08:17:58;;;;;;;16.33;9.20;;;;;;;-1.99;59.13;100383.47;4772915;30;20063;-80
2023/02/10 08:20:24;;;;;;;15.65;8.63;;;;;;;-1.84;58.68;100387.63;4787720;30;20047;-80
2023/02/10 08:22:56;;;;;;;20.30;9.68;;;;;;;-1.76;58.67;100386.66;4787850;30;20059;-79
2023/02/10 08:25:22;;;;;;;13.50;8.57;;;;;;;-1.66;57.93;100397.03;4787882;30;20079;-80
2023/02/10 08:27:48;;;;;;;13.50;8.93;;;;;;;-1.69;58.14;100383.94;4803198;29;20085;-80
2023/02/10 08:30:15;;;;;;;16.63;9.38;;;;;;;-1.52;57.97;100384.59;4787745;30;20583;-79
2023/02/10 08:32:41;;;;;;;14.65;9.43;;;;;;;-1.42;57.88;100380.97;4788821;29;20488;-80
2023/02/10 08:35:07;;;;;;;15.52;9.57;;;;;;;-1.29;57.45;100381.63;4772964;30;20055;-80
2023/02/10 08:37:33;;;;;;;15.63;8.73;;;;;;;-1.19;57.82;100372.75;4787818;30;20047;-79
2023/02/10 08:39:59;;;;;;;22.20;9.70;;;;;;;-1.12;57.17;100374.38;4802623;29;20440;-80
2023/02/10 08:42:25;;;;;;;15.48;9.90;;;;;;;-1.04;57.14;100376.88;4787118;30;20050;-80
2023/02/10 08:44:56;;;;;;;14.25;8.93;;;;;;;-1.08;56.90;100370.81;4787306;30;20048;-79
2023/02/10 08:47:22;;;;;;;14.23;8.40;;;;;;;-1.08;57.21;100375.19;4802990;29;20055;-82
2023/02/10 08:49:48;;;;;;;15.63;9.02;;;;;;;-1.04;57.09;100362.00;4787651;30;20511;-80
2023/02/10 08:52:14;;;;;;;12.80;8.23;;;;;;;-0.94;57.27;100367.97;4787885;30;20501;-80
2023/02/10 08:54:40;;;;;;;13.38;8.38;;;;;;;-1.04;56.93;100372.50;4788868;29;20105;-81
2023/02/10 08:57:06;;;;;;;14.32;8.60;;;;;;;-0.98;57.00;100374.13;4787321;30;20441;-80
2023/02/10 08:59:32;;;;;;;14.77;9.18;;;;;;;-1.27;57.18;100362.38;4788330;29;20073;-80
2023/02/10 09:01:57;;;;;;;13.68;7.97;;;;;;;-1.25;57.75;100360.56;4772370;30;20138;-80
2023/02/10 09:04:23;;;;;;;13.10;8.95;;;;;;;-1.14;57.80;100364.78;4787440;30;20466;-80
2023/02/10 09:06:49;;;;;;;15.20;8.55;;;;;;;-1.08;57.58;100346.34;4757399;30;20189;-80
2023/02/10 09:09:19;;;;;;;13.60;8.98;;;;;;;-0.89;57.40;100344.28;4787036;30;20058;-78
2023/02/10 09:11:47;;;;;;;;;;;;;;;-0.71;57.37;100349.19;4772588;30;20089;-79
2023/02/10 09:14:13;;;;;;;13.85;7.97;;;;;;;-0.75;57.04;100353.63;4787134;30;19970;-80
2023/02/10 09:16:39;;;;;;;14.35;8.07;;;;;;;-0.71;56.59;100350.94;4787233;30;20067;-80
2023/02/10 09:19:08;;;;;;;16.75;8.35;;;;;;;-1.06;57.00;100344.53;4802132;29;20127;-80
2023/02/10 09:21:34;;;;;;;15.60;8.77;;;;;;;-1.16;57.58;100354.34;4788188;29;20546;-82
2023/02/10 09:24:00;;;;;;;21.23;9.70;;;;;;;-1.02;57.69;100349.69;4802474;29;20051;-81
2023/02/10 09:26:26;;;;;;;13.93;8.35;;;;;;;-1.02;57.16;100349.69;4787009;30;20569;-79
2023/02/10 09:28:52;;;;;;;15.65;9.15;;;;;;;-0.83;57.23;100350.28;4786871;30;20080;-79
2023/02/10 09:31:18;;;;;;;13.30;8.43;;;;;;;-0.80;56.94;100344.97;4787159;30;20055;-79
2023/02/10 09:33:47;;;;;;;13.90;7.68;;;;;;;-0.75;57.24;100353.63;4786543;29;20051;-80
2023/02/10 09:36:15;;;;;;;12.27;7.43;;;;;;;-0.74;57.40;100344.88;4787005;30;20043;-81
2023/02/10 09:38:42;;;;;;;12.43;8.40;;;;;;;-0.82;56.95;100341.50;4787650;29;20051;-79
2023/02/10 09:41:38;;;;;;;16.02;7.75;;;;;;;-0.83;57.22;100333.66;4801576;29;20051;-81
2023/02/10 09:44:12;;;;;;;12.65;7.95;;;;;;;-0.76;57.14;100344.00;4786641;30;20047;-79
2023/02/10 09:46:45;;;;;;;28.10;9.15;;;;;;;-0.71;57.05;100346.56;4787564;29;20419;-80
2023/02/10 09:49:45;;;;;;;10.18;7.40;;;;;;;-0.86;57.60;100342.47;4801439;29;20070;-79
2023/02/10 09:52:40;;;;;;;13.25;7.88;;;;;;;-0.85;57.59;100338.94;4786701;30;20055;-80
2023/02/10 09:55:16;;;;;;;12.30;7.63;;;;;;;-0.81;57.48;100337.97;4756827;30;20074;-80
2023/02/10 09:57:48;;;;;;;11.85;7.38;;;;;;;-0.93;58.16;100338.22;4771690;30;20051;-79
2023/02/10 10:00:32;;;;;;;10.25;7.38;;;;;;;-0.86;57.80;100329.34;4786773;30;20195;-81
2023/02/10 10:03:01;;;;;;;13.82;7.20;;;;;;;-0.80;57.88;100329.22;4801713;29;20055;-79
2023/02/10 10:05:47;;;;;;;12.57;7.45;;;;;;;-0.63;57.93;100336.78;4786404;30;20105;-79
2023/02/10 10:08:54;;;;;;;10.35;7.05;;;;;;;-0.59;57.81;100332.34;4771713;30;20047;-80
2023/02/10 10:11:47;;;;;;;11.60;7.10;;;;;;;-0.52;57.82;100333.97;4774358;30;20063;-79
2023/02/10 10:14:22;;;;;;;11.75;7.47;;;;;;;-0.39;57.85;100327.56;4786104;30;20047;-78
2023/02/10 10:17:15;;;;;;;9.88;6.63;;;;;;;-0.64;57.97;100314.06;4801385;29;20500;-80
2023/02/10 10:19:59;;;;;;;11.02;6.28;;;;;;;-0.82;58.26;100320.50;4787482;30;20198;-79
2023/02/10 10:22:56;;;;;;;9.50;5.70;;;;;;;-0.87;59.19;100321.47;4788292;29;20393;-78
2023/02/10 10:25:51;;;;;;;9.38;5.88;;;;;;;-0.65;59.34;100332.47;4788838;29;20458;-80
2023/02/10 10:28:39;;;;;;;8.45;5.82;;;;;;;-0.52;58.81;100328.72;4742376;29;20060;-78
2023/02/10 10:31:23;;;;;;;8.45;5.65;;;;;;;-0.57;59.15;100328.78;4760369;30;20058;-79
2023/02/10 10:33:56;;;;;;;19.25;6.90;;;;;;;-0.61;59.06;100324.50;4804726;29;20051;-81
2023/02/10 10:36:33;;;;;;;13.80;6.35;;;;;;;-0.47;59.35;100320.75;4789926;30;20058;-80
2023/02/10 10:39:37;;;;;;;6.95;5.18;;;;;;;-0.42;59.18;100329.41;4789586;30;20070;-81
2023/02/10 10:42:40;;;;;;;7.88;5.25;;;;;;;-0.65;59.24;100332.47;4789702;30;20085;-81
2023/02/10 10:45:15;;;;;;;8.13;5.72;;;;;;;-1.12;60.11;100327.16;4750381;30;20059;-81
2023/02/10 10:47:57;;;;;;;10.75;5.57;;;;;;;-0.96;60.00;100329.53;4791330;29;20061;-79
2023/02/10 10:50:23;;;;;;;7.65;5.07;;;;;;;-0.91;60.25;100336.41;4789753;30;20047;-79
2023/02/10 10:52:52;;;;;;;8.00;5.47;;;;;;;-0.93;60.31;100345.22;4789377;30;20047;-81
2023/02/10 10:55:37;;;;;;;8.70;5.47;;;;;;;-1.08;60.41;100341.97;4790628;29;20043;-80
2023/02/10 10:58:25;;;;;;;8.13;5.25;;;;;;;-1.15;60.54;100352.56;4775258;30;20136;-81
2023/02/10 11:00:57;;;;;;;7.68;5.38;;;;;;;-0.95;60.45;100354.88;4791267;30;20055;-78
2023/02/10 11:03:23;;;;;;;9.05;5.75;;;;;;;-0.84;60.65;100342.41;4789405;30;20051;-80
2023/02/10 11:06:09;;;;;;;7.78;4.80;;;;;;;-0.77;60.37;100339.66;4790666;29;20047;-80
2023/02/10 11:08:43;;;;;;;10.82;5.50;;;;;;;-0.81;60.36;100343.25;4791142;30;20062;-78
2023/02/10 11:11:15;;;;;;;8.30;5.55;;;;;;;-1.14;60.38;100334.19;4804218;29;20051;-79
2023/02/10 11:13:52;;;;;;;9.15;6.13;;;;;;;-1.45;61.25;100327.69;4789761;30;20527;-82
2023/02/10 11:16:19;;;;;;;8.65;5.60;;;;;;;-1.35;62.23;100339.78;4790341;30;20496;-80
2023/02/10 11:19:00;;;;;;;8.38;5.60;;;;;;;-1.42;61.98;100327.66;4789386;30;20058;-81
2023/02/10 11:21:40;;;;;;;7.38;5.75;;;;;;;-1.41;61.85;100332.84;4790772;30;20082;-81
2023/02/10 11:24:35;;;;;;;10.57;6.18;;;;;;;-1.27;62.05;100337.91;4790949;29;20051;-80
2023/02/10 11:27:05;;;;;;;9.57;6.20;;;;;;;-1.16;61.86;100337.72;4777227;30;20073;-80
2023/02/10 11:29:44;;;;;;;9.23;6.15;;;;;;;-1.07;61.47;100329.69;4804714;29;20051;-82
2023/02/10 11:32:29;;;;;;;9.65;6.22;;;;;;;-1.05;61.34;100334.03;4788955;29;20531;-82